sensor_id;sensor_type;location;lat;lon;timestamp;temperature;humidity
7427;DHT22;3755;59.316;18.092;2023-02-28T00:00:47;2.60;99.90
7427;DHT22;3755;59.316;18.092;2023-02-28T00:03:15;2.50;99.90
7427;DHT22;3755;59.316;18.092;2023-02-28T00:05:43;2.40;99.90
7427;DHT22;3755;59.316;18.092;2023-02-28T00:08:13;2.40;99.90
7427;DHT22;3755;59.316;18.092;2023-02-28T00:10:42;2.40;99.90
7427;DHT22;3755;59.316;18.092;2023-02-28T00:13:13;2.50;99.90
7427;DHT22;3755;59.316;18.092;2023-02-28T00:15:42;2.40;99.90
7427;DHT22;3755;59.316;18.092;2023-02-28T00:18:11;2.50;99.90
7427;DHT22;3755;59.316;18.092;2023-02-28T00:20:39;2.60;99.90
7427;DHT22;3755;59.316;18.092;2023-02-28T00:23:08;2.60;99.90
7427;DHT22;3755;59.316;18.092;2023-02-28T00:25:38;1.90;99.90
7427;DHT22;3755;59.316;18.092;2023-02-28T00:28:07;2.50;99.90
7427;DHT22;3755;59.316;18.092;2023-02-28T00:30:38;2.60;99.90
7427;DHT22;3755;59.316;18.092;2023-02-28T00:33:06;2.60;99.90
7427;DHT22;3755;59.316;18.092;2023-02-28T00:35:34;2.60;99.90
7427;DHT22;3755;59.316;18.092;2023-02-28T00:38:02;2.50;99.90
7427;DHT22;3755;59.316;18.092;2023-02-28T00:40:33;2.60;99.90
7427;DHT22;3755;59.316;18.092;2023-02-28T00:43:02;2.60;99.90
7427;DHT22;3755;59.316;18.092;2023-02-28T00:45:32;2.60;99.90
7427;DHT22;3755;59.316;18.092;2023-02-28T00:48:00;2.60;99.90
7427;DHT22;3755;59.316;18.092;2023-02-28T00:50:27;2.60;99.90
7427;DHT22;3755;59.316;18.092;2023-02-28T00:52:56;2.40;99.90
7427;DHT22;3755;59.316;18.092;2023-02-28T00:55:25;2.60;99.90
7427;DHT22;3755;59.316;18.092;2023-02-28T00:57:53;2.50;99.90
7427;DHT22;3755;59.316;18.092;2023-02-28T01:00:22;2.50;99.90
7427;DHT22;3755;59.316;18.092;2023-02-28T01:02:50;2.50;99.90
7427;DHT22;3755;59.316;18.092;2023-02-28T01:05:17;2.50;99.90
7427;DHT22;3755;59.316;18.092;2023-02-28T01:07:45;2.40;99.90
7427;DHT22;3755;59.316;18.092;2023-02-28T01:10:12;2.40;99.90
7427;DHT22;3755;59.316;18.092;2023-02-28T01:12:40;2.40;99.90
7427;DHT22;3755;59.316;18.092;2023-02-28T01:15:11;2.40;99.90
7427;DHT22;3755;59.316;18.092;2023-02-28T01:17:40;2.30;99.90
7427;DHT22;3755;59.316;18.092;2023-02-28T01:20:09;2.30;99.90
7427;DHT22;3755;59.316;18.092;2023-02-28T01:22:40;2.20;99.90
7427;DHT22;3755;59.316;18.092;2023-02-28T01:25:08;2.20;99.90
7427;DHT22;3755;59.316;18.092;2023-02-28T01:27:36;2.10;99.90
7427;DHT22;3755;59.316;18.092;2023-02-28T01:30:06;2.10;99.90
7427;DHT22;3755;59.316;18.092;2023-02-28T01:32:38;2.20;99.90
7427;DHT22;3755;59.316;18.092;2023-02-28T01:35:23;2.20;99.90
7427;DHT22;3755;59.316;18.092;2023-02-28T01:37:58;2.10;99.90
7427;DHT22;3755;59.316;18.092;2023-02-28T01:40:29;2.10;99.90
7427;DHT22;3755;59.316;18.092;2023-02-28T01:43:01;2.10;99.90
7427;DHT22;3755;59.316;18.092;2023-02-28T01:45:32;2.00;99.90
7427;DHT22;3755;59.316;18.092;2023-02-28T01:48:04;1.90;99.90
7427;DHT22;3755;59.316;18.092;2023-02-28T01:50:38;1.90;99.90
7427;DHT22;3755;59.316;18.092;2023-02-28T01:53:12;1.90;99.90
7427;DHT22;3755;59.316;18.092;2023-02-28T01:55:41;1.90;99.90
7427;DHT22;3755;59.316;18.092;2023-02-28T01:58:26;2.00;99.90
7427;DHT22;3755;59.316;18.092;2023-02-28T02:00:55;1.80;99.90
7427;DHT22;3755;59.316;18.092;2023-02-28T02:03:26;1.90;99.90
7427;DHT22;3755;59.316;18.092;2023-02-28T02:05:55;2.00;99.90
7427;DHT22;3755;59.316;18.092;2023-02-28T02:08:24;2.00;99.90
7427;DHT22;3755;59.316;18.092;2023-02-28T02:10:54;1.90;99.90
7427;DHT22;3755;59.316;18.092;2023-02-28T02:13:34;1.90;99.90
7427;DHT22;3755;59.316;18.092;2023-02-28T02:16:15;1.90;99.90
7427;DHT22;3755;59.316;18.092;2023-02-28T02:18:51;2.00;99.90
7427;DHT22;3755;59.316;18.092;2023-02-28T02:28:05;2.00;99.90
7427;DHT22;3755;59.316;18.092;2023-02-28T02:34:28;1.90;99.90
7427;DHT22;3755;59.316;18.092;2023-02-28T02:37:04;1.80;99.90
7427;DHT22;3755;59.316;18.092;2023-02-28T02:39:47;1.80;99.90
7427;DHT22;3755;59.316;18.092;2023-02-28T02:42:21;1.80;99.90
7427;DHT22;3755;59.316;18.092;2023-02-28T02:44:57;1.80;99.90
7427;DHT22;3755;59.316;18.092;2023-02-28T02:47:29;1.80;99.90
7427;DHT22;3755;59.316;18.092;2023-02-28T02:50:02;1.80;99.90
7427;DHT22;3755;59.316;18.092;2023-02-28T02:52:38;1.70;99.90
7427;DHT22;3755;59.316;18.092;2023-02-28T02:55:07;1.70;99.90
7427;DHT22;3755;59.316;18.092;2023-02-28T02:57:40;1.70;99.90
7427;DHT22;3755;59.316;18.092;2023-02-28T03:00:12;1.70;99.90
7427;DHT22;3755;59.316;18.092;2023-02-28T03:02:41;1.70;99.90
7427;DHT22;3755;59.316;18.092;2023-02-28T03:05:18;1.70;99.90
7427;DHT22;3755;59.316;18.092;2023-02-28T03:07:47;1.70;99.90
7427;DHT22;3755;59.316;18.092;2023-02-28T03:10:30;1.70;99.90
7427;DHT22;3755;59.316;18.092;2023-02-28T03:13:26;1.60;99.90
7427;DHT22;3755;59.316;18.092;2023-02-28T03:16:22;1.60;99.90
7427;DHT22;3755;59.316;18.092;2023-02-28T03:18:57;1.60;99.90
7427;DHT22;3755;59.316;18.092;2023-02-28T03:21:32;1.60;99.90
7427;DHT22;3755;59.316;18.092;2023-02-28T03:24:04;1.50;99.90
7427;DHT22;3755;59.316;18.092;2023-02-28T03:26:36;1.50;99.90
7427;DHT22;3755;59.316;18.092;2023-02-28T03:29:13;1.40;99.90
7427;DHT22;3755;59.316;18.092;2023-02-28T03:31:46;1.40;99.90
7427;DHT22;3755;59.316;18.092;2023-02-28T03:34:19;1.70;99.90
7427;DHT22;3755;59.316;18.092;2023-02-28T03:36:52;1.40;99.90
7427;DHT22;3755;59.316;18.092;2023-02-28T03:39:23;1.40;99.90
7427;DHT22;3755;59.316;18.092;2023-02-28T03:41:54;1.50;99.90
7427;DHT22;3755;59.316;18.092;2023-02-28T03:44:30;1.50;99.90
7427;DHT22;3755;59.316;18.092;2023-02-28T03:47:02;1.40;99.90
7427;DHT22;3755;59.316;18.092;2023-02-28T03:49:34;1.40;99.90
7427;DHT22;3755;59.316;18.092;2023-02-28T03:52:06;1.40;99.90
7427;DHT22;3755;59.316;18.092;2023-02-28T03:54:38;1.40;99.90
7427;DHT22;3755;59.316;18.092;2023-02-28T03:57:13;1.30;99.90
7427;DHT22;3755;59.316;18.092;2023-02-28T03:59:45;1.30;99.90
7427;DHT22;3755;59.316;18.092;2023-02-28T04:02:15;1.20;99.90
7427;DHT22;3755;59.316;18.092;2023-02-28T04:04:44;1.20;99.90
7427;DHT22;3755;59.316;18.092;2023-02-28T04:07:17;1.20;99.90
7427;DHT22;3755;59.316;18.092;2023-02-28T04:09:44;1.20;99.90
7427;DHT22;3755;59.316;18.092;2023-02-28T04:12:12;1.20;99.90
7427;DHT22;3755;59.316;18.092;2023-02-28T04:14:39;1.20;99.90
7427;DHT22;3755;59.316;18.092;2023-02-28T04:17:07;1.10;99.90
7427;DHT22;3755;59.316;18.092;2023-02-28T04:19:34;1.10;99.90
7427;DHT22;3755;59.316;18.092;2023-02-28T04:22:02;1.10;99.90
7427;DHT22;3755;59.316;18.092;2023-02-28T04:24:31;1.10;99.90
7427;DHT22;3755;59.316;18.092;2023-02-28T04:26:59;1.10;99.90
7427;DHT22;3755;59.316;18.092;2023-02-28T04:29:28;1.10;99.90
7427;DHT22;3755;59.316;18.092;2023-02-28T04:31:57;1.00;99.90
7427;DHT22;3755;59.316;18.092;2023-02-28T04:34:25;1.00;99.90
7427;DHT22;3755;59.316;18.092;2023-02-28T04:36:55;1.00;99.90
7427;DHT22;3755;59.316;18.092;2023-02-28T04:39:24;1.00;99.90
7427;DHT22;3755;59.316;18.092;2023-02-28T04:41:53;1.00;99.90
7427;DHT22;3755;59.316;18.092;2023-02-28T04:44:20;1.00;99.90
7427;DHT22;3755;59.316;18.092;2023-02-28T04:46:48;1.00;99.90
7427;DHT22;3755;59.316;18.092;2023-02-28T04:49:16;1.10;99.90
7427;DHT22;3755;59.316;18.092;2023-02-28T04:51:45;1.10;99.90
7427;DHT22;3755;59.316;18.092;2023-02-28T04:54:13;1.10;99.90
7427;DHT22;3755;59.316;18.092;2023-02-28T04:56:41;1.00;99.90
7427;DHT22;3755;59.316;18.092;2023-02-28T04:59:10;1.00;99.90
7427;DHT22;3755;59.316;18.092;2023-02-28T05:01:38;1.00;99.90
7427;DHT22;3755;59.316;18.092;2023-02-28T05:04:05;0.90;99.90
7427;DHT22;3755;59.316;18.092;2023-02-28T05:06:33;0.90;99.90
7427;DHT22;3755;59.316;18.092;2023-02-28T05:09:04;0.90;99.90
7427;DHT22;3755;59.316;18.092;2023-02-28T05:11:45;0.80;99.90
7427;DHT22;3755;59.316;18.092;2023-02-28T05:14:14;0.80;99.90
7427;DHT22;3755;59.316;18.092;2023-02-28T05:16:42;0.80;99.90
7427;DHT22;3755;59.316;18.092;2023-02-28T05:19:11;0.90;99.90
7427;DHT22;3755;59.316;18.092;2023-02-28T05:21:39;0.90;99.90
7427;DHT22;3755;59.316;18.092;2023-02-28T05:24:10;0.90;99.90
7427;DHT22;3755;59.316;18.092;2023-02-28T05:26:40;0.90;99.90
7427;DHT22;3755;59.316;18.092;2023-02-28T05:29:08;0.90;99.90
7427;DHT22;3755;59.316;18.092;2023-02-28T05:31:37;0.90;99.90
7427;DHT22;3755;59.316;18.092;2023-02-28T05:34:05;0.90;99.90
7427;DHT22;3755;59.316;18.092;2023-02-28T05:36:33;0.90;99.90
7427;DHT22;3755;59.316;18.092;2023-02-28T05:39:00;0.90;99.90
7427;DHT22;3755;59.316;18.092;2023-02-28T05:41:28;1.00;99.90
7427;DHT22;3755;59.316;18.092;2023-02-28T05:43:57;0.90;99.90
7427;DHT22;3755;59.316;18.092;2023-02-28T05:46:25;0.90;99.90
7427;DHT22;3755;59.316;18.092;2023-02-28T05:48:55;0.90;99.90
7427;DHT22;3755;59.316;18.092;2023-02-28T05:51:24;0.90;99.90
7427;DHT22;3755;59.316;18.092;2023-02-28T05:53:52;0.90;99.90
7427;DHT22;3755;59.316;18.092;2023-02-28T05:56:20;0.90;99.90
7427;DHT22;3755;59.316;18.092;2023-02-28T05:58:49;0.90;99.90
7427;DHT22;3755;59.316;18.092;2023-02-28T06:01:34;0.90;99.90
7427;DHT22;3755;59.316;18.092;2023-02-28T06:04:06;0.90;99.90
7427;DHT22;3755;59.316;18.092;2023-02-28T06:06:48;0.90;99.90
7427;DHT22;3755;59.316;18.092;2023-02-28T06:09:19;1.00;99.90
7427;DHT22;3755;59.316;18.092;2023-02-28T06:12:07;1.40;99.90
7427;DHT22;3755;59.316;18.092;2023-02-28T06:14:54;1.10;99.90
7427;DHT22;3755;59.316;18.092;2023-02-28T06:17:23;1.20;99.90
7427;DHT22;3755;59.316;18.092;2023-02-28T06:19:56;1.20;99.90
7427;DHT22;3755;59.316;18.092;2023-02-28T06:22:25;1.30;99.90
7427;DHT22;3755;59.316;18.092;2023-02-28T06:24:53;1.30;99.90
7427;DHT22;3755;59.316;18.092;2023-02-28T06:27:35;1.40;99.90
7427;DHT22;3755;59.316;18.092;2023-02-28T06:30:05;1.40;99.90
7427;DHT22;3755;59.316;18.092;2023-02-28T06:32:50;1.40;99.90
7427;DHT22;3755;59.316;18.092;2023-02-28T06:35:35;1.40;99.90
7427;DHT22;3755;59.316;18.092;2023-02-28T06:38:05;1.40;99.90
7427;DHT22;3755;59.316;18.092;2023-02-28T06:40:54;1.40;99.90
7427;DHT22;3755;59.316;18.092;2023-02-28T06:43:24;1.50;99.90
7427;DHT22;3755;59.316;18.092;2023-02-28T06:45:55;1.60;99.90
7427;DHT22;3755;59.316;18.092;2023-02-28T06:48:36;1.70;99.90
7427;DHT22;3755;59.316;18.092;2023-02-28T06:51:10;1.70;99.90
7427;DHT22;3755;59.316;18.092;2023-02-28T06:53:42;1.80;99.90
7427;DHT22;3755;59.316;18.092;2023-02-28T06:56:52;1.80;99.90
7427;DHT22;3755;59.316;18.092;2023-02-28T06:59:29;1.90;99.90
7427;DHT22;3755;59.316;18.092;2023-02-28T07:02:02;1.90;99.90
7427;DHT22;3755;59.316;18.092;2023-02-28T07:04:47;1.90;99.90
7427;DHT22;3755;59.316;18.092;2023-02-28T07:07:31;1.90;99.90
7427;DHT22;3755;59.316;18.092;2023-02-28T07:13:45;2.10;99.90
7427;DHT22;3755;59.316;18.092;2023-02-28T07:16:26;2.20;99.90
7427;DHT22;3755;59.316;18.092;2023-02-28T07:19:01;2.20;99.90
7427;DHT22;3755;59.316;18.092;2023-02-28T07:21:42;2.30;99.90
7427;DHT22;3755;59.316;18.092;2023-02-28T07:24:17;2.40;99.90
7427;DHT22;3755;59.316;18.092;2023-02-28T07:26:51;2.40;99.90
7427;DHT22;3755;59.316;18.092;2023-02-28T07:29:34;2.40;99.90
7427;DHT22;3755;59.316;18.092;2023-02-28T07:32:15;2.40;99.90
7427;DHT22;3755;59.316;18.092;2023-02-28T07:34:55;2.40;99.90
7427;DHT22;3755;59.316;18.092;2023-02-28T07:37:36;2.40;99.90
7427;DHT22;3755;59.316;18.092;2023-02-28T07:40:08;2.40;99.90
7427;DHT22;3755;59.316;18.092;2023-02-28T07:42:55;2.40;99.90
7427;DHT22;3755;59.316;18.092;2023-02-28T07:45:36;2.50;99.90
7427;DHT22;3755;59.316;18.092;2023-02-28T07:48:06;2.50;99.90
7427;DHT22;3755;59.316;18.092;2023-02-28T07:50:40;2.50;99.90
7427;DHT22;3755;59.316;18.092;2023-02-28T07:53:08;2.50;99.90
7427;DHT22;3755;59.316;18.092;2023-02-28T07:55:54;2.60;99.90
7427;DHT22;3755;59.316;18.092;2023-02-28T07:58:27;2.70;99.90
7427;DHT22;3755;59.316;18.092;2023-02-28T08:01:10;2.70;99.90
7427;DHT22;3755;59.316;18.092;2023-02-28T08:03:51;2.80;99.90
7427;DHT22;3755;59.316;18.092;2023-02-28T08:06:22;2.90;99.90
7427;DHT22;3755;59.316;18.092;2023-02-28T08:09:03;2.90;99.90
7427;DHT22;3755;59.316;18.092;2023-02-28T08:14:44;3.10;99.90
7427;DHT22;3755;59.316;18.092;2023-02-28T08:17:12;3.10;99.90
7427;DHT22;3755;59.316;18.092;2023-02-28T08:19:53;3.30;99.90
7427;DHT22;3755;59.316;18.092;2023-02-28T08:22:21;3.30;99.90
7427;DHT22;3755;59.316;18.092;2023-02-28T08:24:49;3.40;99.90
7427;DHT22;3755;59.316;18.092;2023-02-28T08:27:34;3.50;99.90
7427;DHT22;3755;59.316;18.092;2023-02-28T08:30:19;3.60;99.90
7427;DHT22;3755;59.316;18.092;2023-02-28T08:33:10;3.60;99.90
7427;DHT22;3755;59.316;18.092;2023-02-28T08:35:37;3.70;99.90
7427;DHT22;3755;59.316;18.092;2023-02-28T08:38:06;3.70;99.90
7427;DHT22;3755;59.316;18.092;2023-02-28T08:40:41;3.70;99.90
7427;DHT22;3755;59.316;18.092;2023-02-28T08:43:27;3.70;99.90
7427;DHT22;3755;59.316;18.092;2023-02-28T08:49:44;3.80;99.90
7427;DHT22;3755;59.316;18.092;2023-02-28T08:52:31;3.90;99.90
7427;DHT22;3755;59.316;18.092;2023-02-28T08:55:13;3.90;99.90
7427;DHT22;3755;59.316;18.092;2023-02-28T08:58:01;3.80;99.90
7427;DHT22;3755;59.316;18.092;2023-02-28T09:00:47;4.00;99.90
7427;DHT22;3755;59.316;18.092;2023-02-28T09:03:31;4.00;99.90
7427;DHT22;3755;59.316;18.092;2023-02-28T09:06:15;4.10;99.90
7427;DHT22;3755;59.316;18.092;2023-02-28T09:08:43;4.10;99.90
7427;DHT22;3755;59.316;18.092;2023-02-28T09:11:20;4.20;99.90
7427;DHT22;3755;59.316;18.092;2023-02-28T09:14:04;4.40;99.90
7427;DHT22;3755;59.316;18.092;2023-02-28T09:16:46;4.40;99.90
7427;DHT22;3755;59.316;18.092;2023-02-28T09:19:13;4.50;99.90
7427;DHT22;3755;59.316;18.092;2023-02-28T09:22:12;4.60;99.90
7427;DHT22;3755;59.316;18.092;2023-02-28T09:24:54;4.50;99.90
7427;DHT22;3755;59.316;18.092;2023-02-28T09:27:22;4.60;99.90
7427;DHT22;3755;59.316;18.092;2023-02-28T09:29:56;4.70;99.90
7427;DHT22;3755;59.316;18.092;2023-02-28T09:32:38;4.70;99.90
7427;DHT22;3755;59.316;18.092;2023-02-28T09:35:07;4.80;99.90
7427;DHT22;3755;59.316;18.092;2023-02-28T09:40:54;5.00;99.90
7427;DHT22;3755;59.316;18.092;2023-02-28T09:43:43;5.10;99.90
7427;DHT22;3755;59.316;18.092;2023-02-28T09:46:25;5.10;99.90
7427;DHT22;3755;59.316;18.092;2023-02-28T09:48:54;5.10;99.90
7427;DHT22;3755;59.316;18.092;2023-02-28T09:51:49;5.20;99.90
7427;DHT22;3755;59.316;18.092;2023-02-28T09:54:19;5.30;99.90
7427;DHT22;3755;59.316;18.092;2023-02-28T10:00:19;5.30;99.90
7427;DHT22;3755;59.316;18.092;2023-02-28T10:03:28;5.40;99.90
7427;DHT22;3755;59.316;18.092;2023-02-28T10:06:16;5.50;99.90
7427;DHT22;3755;59.316;18.092;2023-02-28T10:09:03;5.50;99.90
7427;DHT22;3755;59.316;18.092;2023-02-28T10:11:47;5.60;99.90
7427;DHT22;3755;59.316;18.092;2023-02-28T10:14:36;5.50;99.90
7427;DHT22;3755;59.316;18.092;2023-02-28T10:21:01;5.70;99.90
7427;DHT22;3755;59.316;18.092;2023-02-28T10:23:44;5.70;99.90
7427;DHT22;3755;59.316;18.092;2023-02-28T10:26:47;5.80;99.90
7427;DHT22;3755;59.316;18.092;2023-02-28T10:29:44;5.90;99.90
7427;DHT22;3755;59.316;18.092;2023-02-28T10:32:29;5.90;99.90
7427;DHT22;3755;59.316;18.092;2023-02-28T10:35:20;5.90;99.90
7427;DHT22;3755;59.316;18.092;2023-02-28T11:02:32;5.90;99.90
7427;DHT22;3755;59.316;18.092;2023-02-28T11:05:34;6.00;99.90
7427;DHT22;3755;59.316;18.092;2023-02-28T11:08:22;6.00;99.90
7427;DHT22;3755;59.316;18.092;2023-02-28T11:11:06;6.00;99.90
7427;DHT22;3755;59.316;18.092;2023-02-28T11:13:52;6.00;99.90
7427;DHT22;3755;59.316;18.092;2023-02-28T11:16:35;6.10;99.90
7427;DHT22;3755;59.316;18.092;2023-02-28T11:38:43;6.80;99.90
7427;DHT22;3755;59.316;18.092;2023-02-28T11:41:33;6.80;99.90
7427;DHT22;3755;59.316;18.092;2023-02-28T11:44:29;6.70;99.90
7427;DHT22;3755;59.316;18.092;2023-02-28T11:47:31;6.80;99.90
7427;DHT22;3755;59.316;18.092;2023-02-28T11:50:22;6.90;99.90
7427;DHT22;3755;59.316;18.092;2023-02-28T11:53:19;7.00;99.90
7427;DHT22;3755;59.316;18.092;2023-02-28T11:56:16;7.00;99.90
7427;DHT22;3755;59.316;18.092;2023-02-28T11:58:55;6.60;99.90
7427;DHT22;3755;59.316;18.092;2023-02-28T12:01:58;6.70;99.90
7427;DHT22;3755;59.316;18.092;2023-02-28T12:04:52;6.80;99.90
7427;DHT22;3755;59.316;18.092;2023-02-28T12:07:47;6.80;99.90
7427;DHT22;3755;59.316;18.092;2023-02-28T12:10:34;6.70;99.90
7427;DHT22;3755;59.316;18.092;2023-02-28T12:13:25;6.60;99.90
7427;DHT22;3755;59.316;18.092;2023-02-28T12:16:45;6.80;99.90
7427;DHT22;3755;59.316;18.092;2023-02-28T12:19:20;6.80;99.90
7427;DHT22;3755;59.316;18.092;2023-02-28T12:22:17;6.90;99.90
7427;DHT22;3755;59.316;18.092;2023-02-28T12:25:28;7.00;99.90
7427;DHT22;3755;59.316;18.092;2023-02-28T12:28:02;7.10;99.90
7427;DHT22;3755;59.316;18.092;2023-02-28T12:31:12;7.10;99.90
7427;DHT22;3755;59.316;18.092;2023-02-28T12:34:01;7.10;99.90
7427;DHT22;3755;59.316;18.092;2023-02-28T12:36:46;7.20;99.90
7427;DHT22;3755;59.316;18.092;2023-02-28T12:39:31;7.30;99.90
7427;DHT22;3755;59.316;18.092;2023-02-28T12:42:19;7.40;99.90
7427;DHT22;3755;59.316;18.092;2023-02-28T12:45:08;7.30;99.90
7427;DHT22;3755;59.316;18.092;2023-02-28T12:47:58;7.30;99.90
7427;DHT22;3755;59.316;18.092;2023-02-28T12:50:34;7.20;99.90
7427;DHT22;3755;59.316;18.092;2023-02-28T12:53:23;7.20;99.90
7427;DHT22;3755;59.316;18.092;2023-02-28T12:56:42;7.20;99.90
7427;DHT22;3755;59.316;18.092;2023-02-28T12:59:21;7.20;99.90
7427;DHT22;3755;59.316;18.092;2023-02-28T13:09:07;7.20;99.90
7427;DHT22;3755;59.316;18.092;2023-02-28T13:11:59;7.30;99.90
7427;DHT22;3755;59.316;18.092;2023-02-28T13:14:41;7.30;99.90
7427;DHT22;3755;59.316;18.092;2023-02-28T13:17:24;7.40;99.90
7427;DHT22;3755;59.316;18.092;2023-02-28T13:20:17;7.40;99.90
7427;DHT22;3755;59.316;18.092;2023-02-28T13:22:46;7.60;99.90
7427;DHT22;3755;59.316;18.092;2023-02-28T13:34:47;7.50;99.90
7427;DHT22;3755;59.316;18.092;2023-02-28T13:37:37;7.50;99.90
7427;DHT22;3755;59.316;18.092;2023-02-28T13:40:47;7.50;99.90
7427;DHT22;3755;59.316;18.092;2023-02-28T13:43:59;7.60;99.90
7427;DHT22;3755;59.316;18.092;2023-02-28T13:46:30;7.60;99.90
7427;DHT22;3755;59.316;18.092;2023-02-28T13:49:18;7.50;99.90
7427;DHT22;3755;59.316;18.092;2023-02-28T13:52:06;7.60;99.90
7427;DHT22;3755;59.316;18.092;2023-02-28T13:55:19;7.60;99.90
7427;DHT22;3755;59.316;18.092;2023-02-28T13:58:09;7.60;99.90
7427;DHT22;3755;59.316;18.092;2023-02-28T14:03:44;7.50;99.90
7427;DHT22;3755;59.316;18.092;2023-02-28T14:06:49;7.40;99.90
7427;DHT22;3755;59.316;18.092;2023-02-28T14:09:45;7.40;99.90
7427;DHT22;3755;59.316;18.092;2023-02-28T14:12:59;7.50;99.90
7427;DHT22;3755;59.316;18.092;2023-02-28T14:15:49;7.50;99.90
7427;DHT22;3755;59.316;18.092;2023-02-28T14:18:40;7.50;99.90
7427;DHT22;3755;59.316;18.092;2023-02-28T14:21:22;7.40;99.90
7427;DHT22;3755;59.316;18.092;2023-02-28T14:24:22;7.40;99.90
7427;DHT22;3755;59.316;18.092;2023-02-28T14:31:03;7.60;99.90
7427;DHT22;3755;59.316;18.092;2023-02-28T14:34:01;7.60;99.90
7427;DHT22;3755;59.316;18.092;2023-02-28T14:36:36;7.60;99.90
7427;DHT22;3755;59.316;18.092;2023-02-28T14:39:13;7.60;99.90
7427;DHT22;3755;59.316;18.092;2023-02-28T14:41:43;7.60;99.90
7427;DHT22;3755;59.316;18.092;2023-02-28T14:44:22;7.70;99.90
7427;DHT22;3755;59.316;18.092;2023-02-28T14:46:56;7.80;99.90
7427;DHT22;3755;59.316;18.092;2023-02-28T14:49:44;7.80;99.90
7427;DHT22;3755;59.316;18.092;2023-02-28T14:52:15;7.80;99.90
7427;DHT22;3755;59.316;18.092;2023-02-28T14:55:01;7.70;99.90
7427;DHT22;3755;59.316;18.092;2023-02-28T14:57:31;7.70;99.90
7427;DHT22;3755;59.316;18.092;2023-02-28T15:00:02;7.60;99.90
7427;DHT22;3755;59.316;18.092;2023-02-28T15:02:41;7.50;99.90
7427;DHT22;3755;59.316;18.092;2023-02-28T15:05:24;7.50;99.90
7427;DHT22;3755;59.316;18.092;2023-02-28T15:08:06;7.40;99.90
7427;DHT22;3755;59.316;18.092;2023-02-28T15:10:52;7.40;99.90
7427;DHT22;3755;59.316;18.092;2023-02-28T15:13:21;7.40;99.90
7427;DHT22;3755;59.316;18.092;2023-02-28T15:15:53;7.30;99.90
7427;DHT22;3755;59.316;18.092;2023-02-28T15:18:30;7.30;99.90
7427;DHT22;3755;59.316;18.092;2023-02-28T15:21:03;7.20;99.90
7427;DHT22;3755;59.316;18.092;2023-02-28T15:23:35;7.20;99.90
7427;DHT22;3755;59.316;18.092;2023-02-28T15:26:14;7.20;99.90
7427;DHT22;3755;59.316;18.092;2023-02-28T15:28:44;7.10;99.90
7427;DHT22;3755;59.316;18.092;2023-02-28T15:31:25;7.10;99.90
7427;DHT22;3755;59.316;18.092;2023-02-28T15:33:55;7.10;99.90
7427;DHT22;3755;59.316;18.092;2023-02-28T15:36:26;7.10;99.90
7427;DHT22;3755;59.316;18.092;2023-02-28T15:38:54;7.10;99.90
7427;DHT22;3755;59.316;18.092;2023-02-28T15:41:25;7.00;99.90
7427;DHT22;3755;59.316;18.092;2023-02-28T15:44:13;7.00;99.90
7427;DHT22;3755;59.316;18.092;2023-02-28T15:46:43;6.90;99.90
7427;DHT22;3755;59.316;18.092;2023-02-28T15:49:19;6.90;99.90
7427;DHT22;3755;59.316;18.092;2023-02-28T15:51:48;6.90;99.90
7427;DHT22;3755;59.316;18.092;2023-02-28T15:54:23;6.90;99.90
7427;DHT22;3755;59.316;18.092;2023-02-28T15:56:54;6.80;99.90
7427;DHT22;3755;59.316;18.092;2023-02-28T15:59:27;6.80;99.90
7427;DHT22;3755;59.316;18.092;2023-02-28T16:02:32;6.70;99.90
7427;DHT22;3755;59.316;18.092;2023-02-28T16:05:21;6.70;99.90
7427;DHT22;3755;59.316;18.092;2023-02-28T16:07:54;6.60;99.90
7427;DHT22;3755;59.316;18.092;2023-02-28T16:10:25;6.50;99.90
7427;DHT22;3755;59.316;18.092;2023-02-28T16:12:54;6.50;99.90
7427;DHT22;3755;59.316;18.092;2023-02-28T16:15:26;6.50;99.90
7427;DHT22;3755;59.316;18.092;2023-02-28T16:17:55;6.50;99.90
7427;DHT22;3755;59.316;18.092;2023-02-28T16:20:31;6.40;99.90
7427;DHT22;3755;59.316;18.092;2023-02-28T16:23:12;6.40;99.90
7427;DHT22;3755;59.316;18.092;2023-02-28T16:25:43;6.40;99.90
7427;DHT22;3755;59.316;18.092;2023-02-28T16:28:18;6.30;99.90
7427;DHT22;3755;59.316;18.092;2023-02-28T16:30:51;6.40;99.90
7427;DHT22;3755;59.316;18.092;2023-02-28T16:33:33;6.30;99.90
7427;DHT22;3755;59.316;18.092;2023-02-28T16:36:18;6.30;99.90
7427;DHT22;3755;59.316;18.092;2023-02-28T16:38:54;6.30;99.90
7427;DHT22;3755;59.316;18.092;2023-02-28T16:41:35;6.30;99.90
7427;DHT22;3755;59.316;18.092;2023-02-28T16:44:12;6.30;99.90
7427;DHT22;3755;59.316;18.092;2023-02-28T16:46:41;6.20;99.90
7427;DHT22;3755;59.316;18.092;2023-02-28T16:49:24;6.20;99.90
7427;DHT22;3755;59.316;18.092;2023-02-28T16:52:09;6.20;99.90
7427;DHT22;3755;59.316;18.092;2023-02-28T16:54:51;6.20;99.90
7427;DHT22;3755;59.316;18.092;2023-02-28T16:57:21;6.20;99.90
7427;DHT22;3755;59.316;18.092;2023-02-28T17:00:06;6.20;99.90
7427;DHT22;3755;59.316;18.092;2023-02-28T17:02:47;6.20;99.90
7427;DHT22;3755;59.316;18.092;2023-02-28T17:05:36;6.20;99.90
7427;DHT22;3755;59.316;18.092;2023-02-28T17:08:11;6.20;99.90
7427;DHT22;3755;59.316;18.092;2023-02-28T17:10:53;6.10;99.90
7427;DHT22;3755;59.316;18.092;2023-02-28T17:13:20;6.10;99.90
7427;DHT22;3755;59.316;18.092;2023-02-28T17:16:02;6.10;99.90
7427;DHT22;3755;59.316;18.092;2023-02-28T17:18:43;6.10;99.90
7427;DHT22;3755;59.316;18.092;2023-02-28T17:21:14;6.10;99.90
7427;DHT22;3755;59.316;18.092;2023-02-28T17:23:58;6.10;99.90
7427;DHT22;3755;59.316;18.092;2023-02-28T17:26:42;6.10;99.90
7427;DHT22;3755;59.316;18.092;2023-02-28T17:29:24;6.00;99.90
7427;DHT22;3755;59.316;18.092;2023-02-28T17:32:06;6.10;99.90
7427;DHT22;3755;59.316;18.092;2023-02-28T17:34:34;6.00;99.90
7427;DHT22;3755;59.316;18.092;2023-02-28T17:37:03;6.00;99.90
7427;DHT22;3755;59.316;18.092;2023-02-28T17:39:42;6.00;99.90
7427;DHT22;3755;59.316;18.092;2023-02-28T17:42:23;6.00;99.90
7427;DHT22;3755;59.316;18.092;2023-02-28T17:44:53;6.00;99.90
7427;DHT22;3755;59.316;18.092;2023-02-28T17:47:24;6.00;99.90
7427;DHT22;3755;59.316;18.092;2023-02-28T17:49:53;6.10;99.90
7427;DHT22;3755;59.316;18.092;2023-02-28T17:52:36;6.00;99.90
7427;DHT22;3755;59.316;18.092;2023-02-28T17:58:41;5.90;99.90
7427;DHT22;3755;59.316;18.092;2023-02-28T18:01:43;5.80;99.90
7427;DHT22;3755;59.316;18.092;2023-02-28T18:04:24;5.80;99.90
7427;DHT22;3755;59.316;18.092;2023-02-28T18:07:10;5.90;99.90
7427;DHT22;3755;59.316;18.092;2023-02-28T18:09:41;5.90;99.90
7427;DHT22;3755;59.316;18.092;2023-02-28T18:12:12;5.90;99.90
7427;DHT22;3755;59.316;18.092;2023-02-28T18:14:57;5.90;99.90
7427;DHT22;3755;59.316;18.092;2023-02-28T18:17:29;6.00;99.90
7427;DHT22;3755;59.316;18.092;2023-02-28T18:20:13;5.90;99.90
7427;DHT22;3755;59.316;18.092;2023-02-28T18:22:54;5.90;99.90
7427;DHT22;3755;59.316;18.092;2023-02-28T18:25:21;5.80;99.90
7427;DHT22;3755;59.316;18.092;2023-02-28T18:27:51;5.80;99.90
7427;DHT22;3755;59.316;18.092;2023-02-28T18:30:37;5.80;99.90
7427;DHT22;3755;59.316;18.092;2023-02-28T18:33:18;5.70;99.90
7427;DHT22;3755;59.316;18.092;2023-02-28T18:35:56;5.70;99.90
7427;DHT22;3755;59.316;18.092;2023-02-28T18:38:25;5.60;99.90
7427;DHT22;3755;59.316;18.092;2023-02-28T18:40:55;5.60;99.90
7427;DHT22;3755;59.316;18.092;2023-02-28T18:43:39;5.60;99.90
7427;DHT22;3755;59.316;18.092;2023-02-28T18:46:24;5.60;99.90
7427;DHT22;3755;59.316;18.092;2023-02-28T18:49:05;5.60;99.90
7427;DHT22;3755;59.316;18.092;2023-02-28T18:51:46;5.60;99.90